Time;durP1;ratioP1;P1;durP2;ratioP2;P2;SDS_P1;SDS_P2;PMS_P1;PMS_P2;Temp;Humidity;BMP_temperature;BMP_pressure;BME280_temperature;BME280_humidity;BME280_pressure;Samples;Min_cycle;Max_cycle;Signal;HPM_P1;HPM_P2
2022/01/29 00:00:48;;;;;;;20.57;10.13;;;4.80;99.90;;;;;;5081720;28;21176;-77
2022/01/29 00:03:15;;;;;;;20.47;11.63;;;4.80;99.90;;;;;;5073479;28;20278;-77
2022/01/29 00:05:41;;;;;;;21.43;11.97;;;4.90;99.90;;;;;;5081919;28;20292;-78
2022/01/29 00:08:08;;;;;;;23.13;11.90;;;4.90;99.90;;;;;;5082840;28;20226;-78
2022/01/29 00:10:35;;;;;;;22.43;12.20;;;4.90;99.90;;;;;;5083617;28;20490;-78
2022/01/29 00:13:02;;;;;;;24.03;12.67;;;4.90;99.90;;;;;;5077993;28;20338;-78
2022/01/29 00:15:29;;;;;;;22.10;12.67;;;4.90;99.90;;;;;;5081117;28;20253;-77
2022/01/29 00:17:57;;;;;;;27.43;13.40;;;4.90;99.90;;;;;;5073917;28;20279;-77
2022/01/29 00:20:24;;;;;;;30.50;13.80;;;4.90;99.90;;;;;;5079776;28;20234;-78
2022/01/29 00:22:51;;;;;;;26.77;14.30;;;4.90;99.90;;;;;;5082649;28;20781;-78
2022/01/29 00:25:18;;;;;;;28.77;14.50;;;4.90;99.90;;;;;;5077188;28;20239;-78
2022/01/29 00:27:44;;;;;;;28.40;14.97;;;4.90;99.90;;;;;;5085666;28;20303;-79
2022/01/29 00:30:16;;;;;;;28.13;15.67;;;4.90;99.90;;;;;;5083281;28;20289;-79
2022/01/29 00:32:43;;;;;;;24.63;14.30;;;5.00;99.90;;;;;;5083004;28;21036;-79
2022/01/29 00:35:12;;;;;;;28.90;15.37;;;5.00;99.90;;;;;;5075751;28;20776;-78
2022/01/29 00:37:38;;;;;;;25.60;15.57;;;5.00;99.90;;;;;;5082633;28;20287;-79
2022/01/29 00:40:06;;;;;;;28.40;15.37;;;5.00;99.90;;;;;;5082404;28;20335;-78
2022/01/29 00:42:33;;;;;;;26.33;14.93;;;5.00;99.90;;;;;;5087086;28;20247;-79
2022/01/29 00:45:00;;;;;;;27.17;15.03;;;5.00;99.90;;;;;;5079263;28;20225;-78
2022/01/29 00:47:26;;;;;;;30.27;15.00;;;5.10;99.90;;;;;;5080675;28;20226;-78
2022/01/29 00:49:53;;;;;;;26.50;16.03;;;5.00;99.90;;;;;;5080751;28;20858;-78
2022/01/29 00:52:21;;;;;;;27.67;16.30;;;5.00;99.90;;;;;;5077614;28;20304;-78
2022/01/29 00:54:48;;;;;;;29.43;16.13;;;5.00;99.90;;;;;;5081908;28;20260;-79
2022/01/29 00:57:15;;;;;;;31.73;17.20;;;5.00;99.90;;;;;;5078654;28;20678;-79
2022/01/29 00:59:42;;;;;;;33.27;18.10;;;5.00;99.90;;;;;;5075767;28;20312;-79
2022/01/29 01:02:09;;;;;;;31.17;18.27;;;5.00;99.90;;;;;;5080295;28;20967;-78
2022/01/29 01:04:38;;;;;;;31.70;18.13;;;5.10;99.90;;;;;;5081357;28;20824;-78
2022/01/29 01:07:07;;;;;;;29.97;19.17;;;5.10;99.90;;;;;;5074560;28;20942;-78
2022/01/29 01:09:35;;;;;;;29.20;18.67;;;5.10;99.90;;;;;;5078980;28;20223;-77
2022/01/29 01:12:02;;;;;;;32.03;18.70;;;5.10;99.90;;;;;;5082141;28;20250;-79
2022/01/29 01:14:29;;;;;;;35.90;20.60;;;5.00;99.90;;;;;;5081689;28;20277;-79
2022/01/29 01:16:56;;;;;;;36.63;21.30;;;5.00;99.90;;;;;;5082536;28;20230;-79
2022/01/29 01:19:25;;;;;;;34.87;22.27;;;5.00;99.90;;;;;;5093407;28;20761;-79
2022/01/29 01:21:52;;;;;;;35.67;21.47;;;5.00;99.90;;;;;;5079450;28;21272;-80
2022/01/29 01:24:19;;;;;;;36.17;21.60;;;5.00;99.90;;;;;;5082877;28;20658;-79
2022/01/29 01:26:47;;;;;;;38.90;23.40;;;4.90;99.90;;;;;;5082004;28;20621;-79
2022/01/29 01:29:14;;;;;;;40.67;23.03;;;4.90;99.90;;;;;;5081910;28;20227;-80
2022/01/29 01:31:43;;;;;;;41.93;24.53;;;4.90;99.90;;;;;;5080795;28;20241;-80
2022/01/29 01:34:10;;;;;;;41.60;24.40;;;4.90;99.90;;;;;;5087498;28;20262;-80
2022/01/29 01:36:43;;;;;;;40.70;24.63;;;4.80;99.90;;;;;;5078234;28;20262;-80
2022/01/29 01:39:13;;;;;;;40.53;26.07;;;4.90;99.90;;;;;;5082068;28;20722;-79
2022/01/29 01:41:42;;;;;;;43.00;25.23;;;4.80;99.90;;;;;;5080585;28;20280;-79
2022/01/29 01:44:13;;;;;;;43.97;25.63;;;4.80;99.90;;;;;;5077522;28;20604;-79
2022/01/29 01:46:40;;;;;;;42.63;25.57;;;4.80;99.90;;;;;;5081167;28;20768;-79
2022/01/29 01:49:06;;;;;;;43.13;25.43;;;4.80;99.90;;;;;;5088120;28;20223;-78
2022/01/29 01:51:33;;;;;;;41.50;25.47;;;4.80;99.90;;;;;;5085128;28;20227;-79
2022/01/29 01:54:00;;;;;;;46.90;27.33;;;4.80;99.90;;;;;;5077077;28;20215;-79
2022/01/29 01:56:27;;;;;;;44.47;27.57;;;4.80;99.90;;;;;;5084393;28;20227;-79
2022/01/29 01:58:56;;;;;;;46.43;28.00;;;4.80;99.90;;;;;;5079003;28;20272;-79
2022/01/29 02:01:25;;;;;;;42.87;27.93;;;4.80;99.90;;;;;;5081853;28;20237;-80
2022/01/29 02:03:52;;;;;;;45.57;28.70;;;4.80;99.90;;;;;;5075744;28;20329;-79
2022/01/29 02:06:20;;;;;;;49.00;29.70;;;4.80;99.90;;;;;;5084460;28;20226;-79
2022/01/29 02:08:46;;;;;;;44.97;28.33;;;4.80;99.90;;;;;;5080176;28;20275;-79
2022/01/29 02:11:13;;;;;;;44.60;29.27;;;4.80;99.90;;;;;;5084678;28;20726;-79
2022/01/29 02:13:40;;;;;;;45.63;29.53;;;4.80;99.90;;;;;;5081330;28;20228;-79
2022/01/29 02:16:07;;;;;;;49.93;29.70;;;4.80;99.90;;;;;;5080653;28;20268;-79
2022/01/29 02:18:37;;;;;;;49.97;29.83;;;4.80;99.90;;;;;;5083585;28;20318;-79
2022/01/29 02:21:04;;;;;;;53.00;30.33;;;4.80;99.90;;;;;;5080694;28;20241;-80
2022/01/29 02:23:33;;;;;;;53.63;31.73;;;4.80;99.90;;;;;;5073255;28;20316;-80
2022/01/29 02:26:01;;;;;;;49.47;30.37;;;4.80;99.90;;;;;;5076823;28;20306;-79
2022/01/29 02:28:27;;;;;;;49.27;30.00;;;4.80;99.90;;;;;;5083403;28;20851;-79
2022/01/29 02:30:58;;;;;;;47.30;29.37;;;4.80;99.90;;;;;;5081789;28;20383;-80
2022/01/29 02:33:25;;;;;;;53.93;31.03;;;4.80;99.90;;;;;;5084081;28;20230;-80
2022/01/29 02:35:53;;;;;;;44.63;29.20;;;4.80;99.90;;;;;;5083973;28;20315;-80
2022/01/29 02:38:23;;;;;;;46.63;29.73;;;4.80;99.90;;;;;;5081501;28;20237;-80
2022/01/29 02:40:55;;;;;;;49.57;30.17;;;4.80;99.90;;;;;;5083661;28;20250;-80
2022/01/29 02:43:27;;;;;;;48.43;29.07;;;4.80;99.90;;;;;;5081458;28;20643;-80
2022/01/29 02:45:54;;;;;;;45.40;28.60;;;4.80;99.90;;;;;;5084674;28;20394;-80
2022/01/29 02:48:22;;;;;;;51.37;30.47;;;4.80;99.90;;;;;;5081283;28;20310;-80
2022/01/29 02:50:49;;;;;;;48.67;29.23;;;4.90;99.90;;;;;;5082770;28;20719;-81
2022/01/29 02:53:16;;;;;;;47.13;29.40;;;4.80;99.90;;;;;;5076183;28;20264;-81
2022/01/29 02:55:43;;;;;;;45.20;28.70;;;4.80;99.90;;;;;;5084219;28;20697;-81
2022/01/29 02:58:11;;;;;;;53.47;30.07;;;4.80;99.90;;;;;;5081989;28;20882;-81
2022/01/29 03:00:38;;;;;;;49.63;29.73;;;4.80;99.90;;;;;;5078817;28;20311;-81
2022/01/29 03:03:05;;;;;;;46.10;28.40;;;4.80;99.90;;;;;;5077230;28;20222;-81
2022/01/29 03:05:32;;;;;;;47.53;29.53;;;4.80;99.90;;;;;;5083667;28;20795;-81
2022/01/29 03:07:59;;;;;;;51.23;30.43;;;4.80;99.90;;;;;;5083496;28;20926;-80
2022/01/29 03:10:26;;;;;;;48.10;28.63;;;4.90;99.90;;;;;;5083049;28;21068;-80
2022/01/29 03:12:53;;;;;;;49.57;30.03;;;4.90;99.90;;;;;;5081805;28;20226;-78
2022/01/29 03:15:21;;;;;;;44.27;28.20;;;4.90;99.90;;;;;;5074485;28;20216;-78
2022/01/29 03:17:48;;;;;;;49.80;29.10;;;4.90;99.90;;;;;;5081908;28;20269;-78
2022/01/29 03:20:15;;;;;;;50.13;28.23;;;4.90;99.90;;;;;;5082244;28;20644;-78
2022/01/29 03:22:42;;;;;;;45.60;27.97;;;4.90;99.90;;;;;;5081469;28;20231;-79
2022/01/29 03:25:08;;;;;;;42.47;27.03;;;4.90;99.90;;;;;;5081314;28;20228;-79
2022/01/29 03:27:35;;;;;;;44.97;27.27;;;4.90;99.90;;;;;;5085891;28;20226;-79
2022/01/29 03:30:03;;;;;;;53.70;28.63;;;4.90;99.90;;;;;;5082691;28;20249;-79
2022/01/29 03:32:31;;;;;;;53.57;29.90;;;4.90;99.90;;;;;;5076683;28;20231;-79
2022/01/29 03:34:58;;;;;;;48.80;28.37;;;4.90;99.90;;;;;;5075704;28;20245;-79
2022/01/29 03:37:25;;;;;;;47.07;28.20;;;4.90;99.90;;;;;;5082877;28;20229;-78
2022/01/29 03:39:57;;;;;;;46.80;28.50;;;4.90;99.90;;;;;;5082946;28;20240;-80
2022/01/29 03:42:24;;;;;;;49.57;28.10;;;4.90;99.90;;;;;;5081968;28;20260;-80
2022/01/29 03:44:50;;;;;;;44.17;27.87;;;4.90;99.90;;;;;;5077416;28;20227;-80
2022/01/29 03:47:18;;;;;;;44.50;27.70;;;4.90;99.90;;;;;;5084650;28;20215;-80
2022/01/29 03:49:46;;;;;;;43.90;26.60;;;4.90;99.90;;;;;;5082543;28;20616;-80
2022/01/29 03:52:13;;;;;;;49.97;28.23;;;4.90;99.90;;;;;;5084049;28;20635;-81
2022/01/29 03:54:39;;;;;;;46.47;27.03;;;4.90;99.90;;;;;;5081769;28;20825;-80
2022/01/29 03:57:06;;;;;;;44.00;27.03;;;4.90;99.90;;;;;;5084185;28;20240;-79
2022/01/29 03:59:34;;;;;;;47.53;27.27;;;4.90;99.90;;;;;;5074441;28;21168;-79
2022/01/29 04:02:00;;;;;;;46.13;28.07;;;4.90;99.90;;;;;;5075381;28;20320;-78
2022/01/29 04:04:27;;;;;;;41.47;26.47;;;5.00;99.90;;;;;;5076038;28;20312;-79
2022/01/29 04:06:59;;;;;;;45.63;26.13;;;5.00;99.90;;;;;;5076812;28;20280;-78
2022/01/29 04:09:28;;;;;;;44.27;27.30;;;5.00;99.90;;;;;;5078545;28;20224;-79
2022/01/29 04:11:54;;;;;;;42.93;24.73;;;5.10;99.90;;;;;;5083539;28;20230;-79
2022/01/29 04:14:22;;;;;;;39.57;24.77;;;5.00;99.90;;;;;;5075204;28;20231;-79
2022/01/29 04:16:49;;;;;;;43.50;25.80;;;5.00;99.90;;;;;;5075934;28;20329;-79
2022/01/29 04:19:15;;;;;;;40.83;25.20;;;5.00;99.90;;;;;;5082271;28;20227;-79
2022/01/29 04:21:42;;;;;;;40.43;24.90;;;5.00;99.90;;;;;;5080008;28;20637;-79
2022/01/29 04:24:10;;;;;;;42.80;25.93;;;5.10;99.90;;;;;;5080194;28;20622;-79
2022/01/29 04:26:37;;;;;;;42.23;25.53;;;5.10;99.90;;;;;;5084404;28;20913;-79
2022/01/29 04:29:07;;;;;;;38.80;23.80;;;5.10;99.90;;;;;;5075490;28;20330;-79
2022/01/29 04:31:41;;;;;;;41.90;25.33;;;5.10;99.90;;;;;;5080705;28;20703;-79
2022/01/29 04:34:07;;;;;;;38.77;23.73;;;5.10;99.90;;;;;;5070406;28;20832;-79
2022/01/29 04:36:34;;;;;;;38.10;24.33;;;5.10;99.90;;;;;;5083293;28;20715;-79
2022/01/29 04:39:01;;;;;;;40.47;24.70;;;5.10;99.90;;;;;;5078801;28;20230;-79
2022/01/29 04:41:29;;;;;;;37.83;23.23;;;5.10;99.90;;;;;;5079599;28;20592;-78
2022/01/29 04:43:56;;;;;;;36.80;23.83;;;5.20;99.90;;;;;;5083134;28;20227;-79
2022/01/29 04:46:23;;;;;;;43.00;25.33;;;5.20;99.90;;;;;;5076935;28;20231;-78
2022/01/29 04:48:49;;;;;;;42.20;25.40;;;5.20;99.90;;;;;;5079783;28;20233;-79
2022/01/29 04:51:16;;;;;;;38.40;24.07;;;5.20;99.90;;;;;;5080445;28;20228;-80
2022/01/29 04:53:43;;;;;;;37.30;23.70;;;5.20;99.90;;;;;;5081554;28;20227;-79
2022/01/29 04:56:09;;;;;;;37.53;23.17;;;5.20;99.90;;;;;;5079722;28;20231;-78
2022/01/29 04:58:37;;;;;;;36.93;23.00;;;5.10;99.90;;;;;;5074345;28;20238;-78
2022/01/29 05:01:04;;;;;;;36.13;22.17;;;5.20;99.90;;;;;;5074874;28;20724;-79
2022/01/29 05:03:32;;;;;;;36.07;23.03;;;5.20;99.90;;;;;;5075917;28;20232;-79
2022/01/29 05:05:58;;;;;;;34.17;21.93;;;5.20;99.90;;;;;;5070097;28;20222;-78
2022/01/29 05:08:25;;;;;;;34.43;22.00;;;5.30;99.90;;;;;;5078348;28;20226;-78
2022/01/29 05:10:53;;;;;;;35.33;22.50;;;5.30;99.90;;;;;;5081699;28;20237;-79
2022/01/29 05:13:24;;;;;;;36.00;22.47;;;5.30;99.90;;;;;;5078420;28;20219;-79
2022/01/29 05:16:05;;;;;;;33.07;21.53;;;5.30;99.90;;;;;;5086263;28;20227;-79
2022/01/29 05:26:55;;;;;;;28.67;19.50;;;5.40;99.90;;;;;;5081402;28;20219;-79
2022/01/29 05:29:23;;;;;;;30.87;20.63;;;5.50;99.90;;;;;;5083577;28;20245;-80
2022/01/29 05:31:51;;;;;;;29.87;19.93;;;5.50;99.90;;;;;;5079807;28;20232;-79
2022/01/29 05:34:19;;;;;;;31.23;21.20;;;5.50;99.90;;;;;;5082679;28;20331;-80
2022/01/29 05:36:46;;;;;;;30.37;20.67;;;5.50;99.90;;;;;;5083359;28;20235;-80
2022/01/29 05:39:13;;;;;;;29.10;20.47;;;5.50;99.90;;;;;;5083995;28;20231;-80
2022/01/29 05:41:39;;;;;;;30.40;21.20;;;5.60;99.90;;;;;;5080916;28;20235;-79
2022/01/29 05:44:06;;;;;;;30.87;20.30;;;5.60;99.90;;;;;;5080073;28;20224;-80
2022/01/29 05:46:33;;;;;;;30.30;19.90;;;5.60;99.90;;;;;;5081539;28;20224;-79
2022/01/29 05:49:02;;;;;;;31.20;20.73;;;5.60;99.90;;;;;;5083003;28;20234;-79
2022/01/29 05:51:30;;;;;;;32.33;21.67;;;5.60;99.90;;;;;;5075216;28;20366;-79
2022/01/29 05:53:57;;;;;;;28.57;19.77;;;5.70;99.90;;;;;;5079478;28;20251;-79
2022/01/29 05:56:24;;;;;;;31.43;19.87;;;5.70;99.90;;;;;;5081406;28;20320;-80
2022/01/29 05:58:50;;;;;;;29.70;20.17;;;5.70;99.90;;;;;;5085278;28;21068;-80
2022/01/29 06:01:17;;;;;;;27.53;20.10;;;5.70;99.90;;;;;;5083906;28;20271;-80
2022/01/29 06:03:44;;;;;;;29.53;19.33;;;5.80;99.90;;;;;;5080804;28;20230;-80
2022/01/29 06:06:12;;;;;;;28.67;20.10;;;5.80;99.90;;;;;;5079366;28;20253;-80
2022/01/29 06:08:39;;;;;;;28.83;19.37;;;5.80;99.90;;;;;;5085888;28;20236;-79
2022/01/29 06:11:06;;;;;;;27.77;19.40;;;5.80;99.90;;;;;;5077510;28;20233;-80
2022/01/29 06:13:32;;;;;;;28.10;19.23;;;5.80;99.90;;;;;;5083396;28;20228;-80
2022/01/29 06:16:01;;;;;;;26.70;18.87;;;5.90;99.90;;;;;;5089744;28;20248;-79
2022/01/29 06:18:28;;;;;;;27.83;19.03;;;5.90;99.90;;;;;;5087830;28;20599;-79
2022/01/29 06:20:57;;;;;;;28.10;18.93;;;5.90;99.90;;;;;;5083764;28;20224;-79
2022/01/29 06:23:30;;;;;;;25.17;17.70;;;5.90;99.90;;;;;;5077000;28;20229;-79
2022/01/29 06:25:57;;;;;;;26.27;18.07;;;6.00;99.90;;;;;;5084248;28;20239;-79
2022/01/29 06:28:24;;;;;;;26.73;17.83;;;6.00;99.90;;;;;;5080848;28;20387;-78
2022/01/29 06:30:51;;;;;;;25.50;18.23;;;6.00;99.90;;;;;;5078730;28;20225;-78
2022/01/29 06:33:18;;;;;;;27.13;16.77;;;6.00;99.90;;;;;;5078170;28;20343;-78
2022/01/29 06:35:46;;;;;;;26.87;17.80;;;6.10;99.90;;;;;;5077960;28;20681;-78
2022/01/29 06:38:15;;;;;;;28.57;17.57;;;6.10;99.90;;;;;;5083475;28;20838;-79
2022/01/29 06:40:44;;;;;;;26.57;17.90;;;6.10;99.90;;;;;;5085645;28;20764;-78
2022/01/29 06:43:11;;;;;;;27.03;17.90;;;6.10;99.90;;;;;;5083711;28;20228;-78
2022/01/29 06:45:41;;;;;;;26.17;17.50;;;6.10;99.90;;;;;;5080226;28;20984;-78
2022/01/29 06:48:08;;;;;;;28.40;18.37;;;6.20;99.90;;;;;;5085231;28;20228;-84
2022/01/29 06:50:35;;;;;;;28.93;18.27;;;6.20;99.90;;;;;;5080940;28;20233;-83
2022/01/29 06:53:03;;;;;;;26.23;18.33;;;6.20;99.90;;;;;;5081744;28;20968;-81
2022/01/29 06:55:30;;;;;;;28.30;18.47;;;6.20;99.90;;;;;;5080473;28;20235;-81
2022/01/29 06:57:58;;;;;;;28.07;19.20;;;6.20;99.90;;;;;;5079126;28;20233;-83
2022/01/29 07:00:25;;;;;;;28.00;18.90;;;6.20;99.90;;;;;;5083003;28;20427;-81
2022/01/29 07:02:52;;;;;;;28.97;18.97;;;6.30;99.90;;;;;;5082058;28;20243;-82
2022/01/29 07:05:19;;;;;;;34.30;19.73;;;6.30;99.90;;;;;;5083889;28;20233;-80
2022/01/29 07:07:45;;;;;;;30.77;19.97;;;6.30;99.90;;;;;;5085050;28;20229;-80
2022/01/29 07:10:12;;;;;;;30.07;18.93;;;6.30;99.90;;;;;;5081500;28;20815;-80
2022/01/29 07:12:39;;;;;;;34.00;20.33;;;6.30;99.90;;;;;;5083373;28;20238;-81
2022/01/29 07:15:10;;;;;;;31.13;20.20;;;6.30;99.90;;;;;;5084512;28;20232;-81
2022/01/29 07:17:37;;;;;;;34.27;21.20;;;6.30;99.90;;;;;;5102494;27;20231;-80
2022/01/29 07:20:06;;;;;;;33.57;19.73;;;6.40;99.90;;;;;;5076095;28;20643;-81
2022/01/29 07:22:33;;;;;;;31.00;20.23;;;6.40;99.90;;;;;;5083814;28;20226;-81
2022/01/29 07:25:00;;;;;;;29.63;19.50;;;6.40;99.90;;;;;;5080461;28;20597;-81
2022/01/29 07:27:27;;;;;;;32.60;21.07;;;6.50;99.90;;;;;;5082554;28;20226;-81
2022/01/29 07:29:54;;;;;;;28.43;19.23;;;6.40;99.90;;;;;;5081225;28;20251;-80
2022/01/29 07:32:23;;;;;;;26.63;18.60;;;6.50;99.90;;;;;;5081078;27;20222;-80
2022/01/29 07:34:49;;;;;;;25.90;17.23;;;6.50;99.90;;;;;;5077461;28;20682;-81
2022/01/29 07:37:16;;;;;;;25.20;16.93;;;6.50;99.90;;;;;;5086859;28;20292;-80
2022/01/29 07:39:43;;;;;;;26.33;17.57;;;6.50;99.90;;;;;;5084551;28;20254;-80
2022/01/29 07:42:10;;;;;;;26.33;17.17;;;6.50;99.90;;;;;;5075153;28;20670;-80
2022/01/29 07:44:37;;;;;;;23.97;16.17;;;6.60;99.90;;;;;;5079058;28;20234;-80
2022/01/29 07:47:04;;;;;;;22.10;15.97;;;6.60;99.90;;;;;;5082625;28;20648;-81
2022/01/29 07:49:32;;;;;;;20.10;15.20;;;6.60;99.90;;;;;;5080936;28;20249;-81
2022/01/29 07:51:58;;;;;;;22.97;15.97;;;6.70;99.90;;;;;;5077198;28;20225;-82
2022/01/29 07:54:25;;;;;;;22.33;14.80;;;6.60;99.90;;;;;;5079454;28;21014;-81
2022/01/29 07:56:52;;;;;;;21.63;15.00;;;6.70;99.90;;;;;;5083560;28;20244;-81
2022/01/29 07:59:18;;;;;;;20.60;13.57;;;6.70;99.90;;;;;;5073720;28;20236;-80
2022/01/29 08:01:45;;;;;;;18.03;13.13;;;6.70;99.90;;;;;;5084034;28;20230;-81
2022/01/29 08:04:12;;;;;;;17.97;13.30;;;6.80;99.90;;;;;;5081909;28;20805;-81
2022/01/29 08:06:40;;;;;;;17.00;11.43;;;6.70;99.90;;;;;;5084866;28;20228;-81
2022/01/29 08:09:08;;;;;;;17.00;11.87;;;6.80;99.90;;;;;;5079387;28;20231;-81
2022/01/29 08:11:36;;;;;;;19.00;12.40;;;6.80;99.90;;;;;;5076052;28;20226;-81
2022/01/29 08:14:02;;;;;;;15.43;11.37;;;6.80;99.90;;;;;;5075049;28;21180;-81
2022/01/29 08:16:29;;;;;;;17.40;10.93;;;6.80;99.90;;;;;;5081792;28;20231;-81
2022/01/29 08:18:56;;;;;;;15.73;11.30;;;6.90;99.90;;;;;;5083867;28;20242;-81
2022/01/29 08:21:23;;;;;;;14.83;11.13;;;6.80;99.90;;;;;;5087232;28;20321;-81
2022/01/29 08:23:51;;;;;;;13.60;10.80;;;6.90;99.90;;;;;;5077835;28;20227;-82
2022/01/29 08:26:18;;;;;;;14.60;10.13;;;6.90;99.90;;;;;;5079874;28;20750;-81
2022/01/29 08:28:45;;;;;;;14.13;10.20;;;6.90;99.90;;;;;;5086485;28;20234;-81
2022/01/29 08:31:11;;;;;;;14.27;10.17;;;6.90;99.90;;;;;;5082280;28;20233;-82
2022/01/29 08:33:39;;;;;;;13.60;10.37;;;6.90;99.90;;;;;;5090440;28;20224;-81
2022/01/29 08:36:07;;;;;;;13.40;9.10;;;6.90;99.90;;;;;;5082827;28;20299;-80
2022/01/29 08:38:34;;;;;;;12.50;9.00;;;6.90;99.90;;;;;;5079589;28;20245;-81
2022/01/29 08:41:03;;;;;;;12.90;9.40;;;6.90;99.90;;;;;;5083038;28;20679;-82
2022/01/29 08:43:30;;;;;;;10.40;8.17;;;6.90;99.90;;;;;;5082117;28;20317;-82
2022/01/29 08:45:56;;;;;;;11.40;8.50;;;7.00;99.90;;;;;;5079829;28;20302;-83
2022/01/29 08:48:23;;;;;;;10.50;8.33;;;7.00;99.90;;;;;;5077205;28;20289;-81
2022/01/29 08:50:50;;;;;;;11.50;8.33;;;7.00;99.90;;;;;;5081593;28;20230;-80
2022/01/29 08:53:19;;;;;;;11.63;8.70;;;7.00;99.90;;;;;;5079544;28;20225;-79
2022/01/29 08:55:46;;;;;;;12.57;8.27;;;7.00;99.90;;;;;;5079886;28;20245;-80
2022/01/29 08:58:14;;;;;;;22.47;8.97;;;7.00;99.90;;;;;;5080367;28;20232;-79
2022/01/29 09:00:44;;;;;;;11.90;8.00;;;7.00;99.90;;;;;;5075698;28;20239;-80
2022/01/29 09:03:12;;;;;;;13.67;8.70;;;7.00;99.90;;;;;;5067797;28;20409;-80
2022/01/29 09:05:39;;;;;;;12.77;8.37;;;7.00;99.90;;;;;;5074422;28;20237;-80
2022/01/29 09:08:06;;;;;;;20.03;9.03;;;7.00;99.90;;;;;;5069151;28;20226;-80
2022/01/29 09:10:33;;;;;;;16.87;9.07;;;7.00;99.90;;;;;;5076063;28;20543;-80
2022/01/29 09:12:59;;;;;;;17.47;8.77;;;7.10;99.90;;;;;;5077219;28;20296;-80
2022/01/29 09:15:28;;;;;;;17.40;8.57;;;7.10;99.90;;;;;;5072184;28;20234;-80
2022/01/29 09:17:55;;;;;;;19.73;8.10;;;7.10;99.90;;;;;;5073391;28;20236;-80
2022/01/29 09:20:21;;;;;;;13.23;8.47;;;7.20;99.90;;;;;;5075495;28;20414;-80
2022/01/29 09:22:48;;;;;;;26.70;8.80;;;7.10;99.90;;;;;;5070877;28;20268;-80
2022/01/29 09:25:15;;;;;;;17.80;7.97;;;7.20;99.90;;;;;;5075543;28;20227;-80
2022/01/29 09:27:42;;;;;;;18.70;8.00;;;7.20;99.90;;;;;;5073081;28;20269;-80
2022/01/29 09:30:09;;;;;;;23.33;9.07;;;7.20;99.90;;;;;;5071468;28;20725;-80
2022/01/29 09:32:37;;;;;;;11.67;7.43;;;7.20;99.90;;;;;;5062836;28;20913;-80
2022/01/29 09:35:05;;;;;;;16.13;7.77;;;7.30;99.90;;;;;;5071129;28;20298;-80
2022/01/29 09:37:32;;;;;;;12.40;7.07;;;7.30;99.90;;;;;;5071112;28;20307;-80
2022/01/29 09:39:59;;;;;;;12.30;7.73;;;7.30;99.90;;;;;;5075066;28;20339;-80
2022/01/29 09:42:25;;;;;;;10.97;7.10;;;7.20;99.90;;;;;;5075801;28;20256;-80
2022/01/29 09:44:52;;;;;;;10.97;7.10;;;7.30;99.90;;;;;;5075246;28;20860;-80
2022/01/29 09:47:22;;;;;;;11.30;7.10;;;7.30;99.90;;;;;;5075671;28;20233;-80
2022/01/29 09:49:51;;;;;;;9.63;7.03;;;7.30;99.90;;;;;;5073030;28;20676;-80
2022/01/29 09:52:18;;;;;;;8.87;6.63;;;7.30;99.90;;;;;;5074209;28;20241;-80
2022/01/29 09:54:48;;;;;;;8.50;7.10;;;7.30;99.90;;;;;;5071775;28;20238;-80
2022/01/29 09:57:14;;;;;;;9.00;6.60;;;7.30;99.90;;;;;;5072759;28;20275;-80
2022/01/29 09:59:41;;;;;;;9.83;6.90;;;7.40;99.90;;;;;;5074111;28;20234;-81
2022/01/29 10:02:14;;;;;;;8.60;6.63;;;7.40;99.90;;;;;;5075532;28;20337;-79
2022/01/29 10:04:50;;;;;;;8.20;6.03;;;7.40;99.90;;;;;;5079282;28;20603;-79
2022/01/29 10:07:19;;;;;;;8.67;6.97;;;7.40;99.90;;;;;;5075448;28;20230;-80
2022/01/29 10:09:47;;;;;;;9.67;6.30;;;7.40;99.90;;;;;;5080865;28;20226;-79
2022/01/29 10:12:18;;;;;;;10.93;6.67;;;7.40;99.90;;;;;;5080933;28;20297;-82
2022/01/29 10:14:54;;;;;;;10.17;6.90;;;7.40;99.90;;;;;;5077455;28;20229;-81
2022/01/29 10:17:40;;;;;;;7.87;6.40;;;7.40;99.90;;;;;;5082431;28;20329;-82
2022/01/29 10:20:10;;;;;;;6.73;5.90;;;7.40;99.90;;;;;;5082537;28;20241;-82
2022/01/29 10:22:37;;;;;;;8.93;6.40;;;7.40;99.90;;;;;;5083072;28;20337;-81
2022/01/29 10:25:06;;;;;;;13.30;7.10;;;7.40;99.90;;;;;;5081829;28;20229;-81
2022/01/29 10:27:33;;;;;;;7.37;5.87;;;7.40;99.90;;;;;;5084438;28;20720;-80
2022/01/29 10:30:00;;;;;;;10.40;6.03;;;7.50;99.90;;;;;;5070413;28;20225;-80
2022/01/29 10:32:28;;;;;;;10.93;5.80;;;7.50;99.90;;;;;;5080370;28;20234;-81
2022/01/29 10:34:56;;;;;;;12.33;5.57;;;7.50;99.90;;;;;;5078459;28;20645;-81
2022/01/29 10:37:26;;;;;;;8.83;5.67;;;7.50;99.90;;;;;;5070633;28;20700;-81
2022/01/29 10:39:55;;;;;;;8.00;5.77;;;7.50;99.90;;;;;;5078527;28;20232;-81
2022/01/29 10:42:24;;;;;;;9.40;5.47;;;7.50;99.90;;;;;;5073126;28;20228;-82
2022/01/29 10:44:52;;;;;;;11.77;6.23;;;7.50;99.90;;;;;;5077452;28;20275;-81
2022/01/29 10:47:20;;;;;;;14.57;6.93;;;7.50;99.90;;;;;;5076344;28;20234;-81
2022/01/29 10:49:52;;;;;;;11.37;6.27;;;7.60;99.90;;;;;;5079743;28;20223;-81
2022/01/29 10:52:25;;;;;;;8.67;5.53;;;7.60;99.90;;;;;;5076772;28;20324;-81
2022/01/29 10:54:59;;;;;;;10.83;5.80;;;7.60;99.90;;;;;;5080788;28;20237;-81
2022/01/29 10:57:32;;;;;;;6.47;5.27;;;7.60;99.90;;;;;;5078876;28;20353;-81
2022/01/29 10:59:59;;;;;;;7.53;5.20;;;7.60;99.90;;;;;;5073358;28;20259;-81
2022/01/29 11:02:30;;;;;;;6.67;5.03;;;7.70;99.90;;;;;;5081967;28;20215;-82
2022/01/29 11:04:57;;;;;;;8.00;5.07;;;7.70;99.90;;;;;;5070784;28;20325;-81
2022/01/29 11:07:27;;;;;;;8.93;5.57;;;7.70;99.90;;;;;;5076611;28;20232;-81
2022/01/29 11:09:56;;;;;;;7.50;5.33;;;7.70;99.90;;;;;;5076902;28;20782;-81
2022/01/29 11:12:26;;;;;;;6.87;5.00;;;7.70;99.90;;;;;;5079325;28;20229;-81
2022/01/29 11:14:54;;;;;;;6.90;5.47;;;7.70;99.90;;;;;;5078776;28;20237;-81
2022/01/29 11:17:23;;;;;;;6.33;5.20;;;7.70;99.90;;;;;;5078243;28;20233;-82
2022/01/29 11:19:50;;;;;;;5.87;5.13;;;7.70;99.90;;;;;;5075723;28;20369;-81
2022/01/29 11:22:21;;;;;;;8.50;5.67;;;7.70;99.90;;;;;;5077064;28;20228;-81
2022/01/29 11:24:49;;;;;;;7.30;5.50;;;7.70;99.90;;;;;;5078477;28;20266;-82
2022/01/29 11:27:22;;;;;;;6.93;5.37;;;7.70;99.90;;;;;;5069952;28;20310;-81
2022/01/29 11:30:04;;;;;;;7.17;5.67;;;7.80;99.90;;;;;;5072770;28;20229;-81
2022/01/29 11:32:38;;;;;;;6.60;5.50;;;7.80;99.90;;;;;;5070841;28;20228;-81
2022/01/29 11:35:08;;;;;;;8.53;5.40;;;7.80;99.90;;;;;;5070070;28;20605;-81
2022/01/29 11:37:54;;;;;;;6.83;5.50;;;7.80;99.90;;;;;;5079312;28;20228;-81
2022/01/29 11:40:30;;;;;;;6.90;5.60;;;7.80;99.90;;;;;;5072016;28;20287;-81
2022/01/29 11:43:09;;;;;;;9.60;6.47;;;7.80;99.90;;;;;;5070667;28;20231;-81
2022/01/29 11:45:49;;;;;;;8.97;6.10;;;7.80;99.90;;;;;;5075702;28;21028;-81
2022/01/29 11:51:53;;;;;;;9.53;6.83;;;7.80;99.90;;;;;;5076586;28;20224;-81
2022/01/29 11:54:25;;;;;;;9.77;6.70;;;7.80;99.90;;;;;;5076846;28;20226;-81
2022/01/29 11:57:11;;;;;;;10.33;6.17;;;7.80;99.90;;;;;;5072842;28;20224;-81
2022/01/29 11:59:40;;;;;;;9.67;6.63;;;7.80;99.90;;;;;;5091157;28;20755;-81
2022/01/29 12:02:35;;;;;;;11.97;6.70;;;7.80;99.90;;;;;;5071789;28;20238;-82
2022/01/29 12:05:07;;;;;;;10.83;6.50;;;7.80;99.90;;;;;;5066688;28;20224;-81
2022/01/29 12:07:37;;;;;;;8.27;6.17;;;7.90;99.90;;;;;;5079981;28;20950;-82
2022/01/29 12:10:08;;;;;;;8.93;6.63;;;7.90;99.90;;;;;;5081368;28;20374;-81
2022/01/29 12:12:36;;;;;;;7.33;6.13;;;7.90;99.90;;;;;;5090719;28;20237;-82
2022/01/29 12:15:38;;;;;;;9.33;6.07;;;7.90;99.90;;;;;;5078879;28;20332;-81
2022/01/29 12:18:32;;;;;;;7.47;6.13;;;7.90;99.90;;;;;;5069867;28;20954;-81
2022/01/29 12:20:59;;;;;;;8.80;6.70;;;8.00;99.90;;;;;;5074762;28;20230;-81
2022/01/29 12:23:26;;;;;;;9.10;5.20;;;8.00;99.90;;;;;;5076422;28;20849;-81
2022/01/29 12:25:55;;;;;;;8.73;5.90;;;8.00;99.90;;;;;;5079521;28;20235;-81
2022/01/29 12:28:23;;;;;;;9.40;5.37;;;8.00;99.90;;;;;;5071258;28;20317;-81
2022/01/29 12:30:51;;;;;;;10.70;5.67;;;8.00;99.90;;;;;;5077437;28;20227;-81
2022/01/29 12:33:20;;;;;;;7.80;4.90;;;8.00;99.90;;;;;;5078177;28;20232;-81
2022/01/29 12:35:50;;;;;;;8.83;5.43;;;8.00;99.90;;;;;;5082803;28;20279;-81
2022/01/29 12:38:18;;;;;;;7.33;5.37;;;8.00;99.90;;;;;;5072418;28;20335;-81
2022/01/29 12:40:54;;;;;;;8.00;4.90;;;8.00;99.90;;;;;;5081413;28;20247;-81
2022/01/29 12:43:24;;;;;;;9.33;5.07;;;8.00;99.90;;;;;;5084404;28;20217;-81
2022/01/29 12:45:54;;;;;;;10.63;5.07;;;8.00;99.90;;;;;;5074600;28;20327;-82
2022/01/29 12:48:21;;;;;;;8.07;5.63;;;8.10;99.90;;;;;;5076357;28;20225;-81
2022/01/29 12:50:48;;;;;;;6.20;4.10;;;8.10;99.90;;;;;;5075912;28;20285;-81
2022/01/29 12:53:16;;;;;;;6.67;5.20;;;8.00;99.90;;;;;;5066638;28;20227;-81
2022/01/29 12:55:44;;;;;;;9.03;4.70;;;8.00;99.90;;;;;;5077674;28;20235;-81
2022/01/29 12:58:11;;;;;;;6.70;4.57;;;8.10;99.90;;;;;;5078062;28;20309;-81
2022/01/29 13:00:38;;;;;;;6.77;4.10;;;8.10;99.90;;;;;;5077810;28;20650;-81